createdAt,value
2022-11-08T00:04:21.360Z,10.8
2022-11-08T00:11:53.648Z,11.6
2022-11-08T00:19:25.922Z,10.1
2022-11-08T00:26:58.194Z,10.2
2022-11-08T00:34:30.459Z,8.6
2022-11-08T00:42:02.723Z,9.8
2022-11-08T00:49:35.006Z,10.0
2022-11-08T00:57:07.283Z,8.4
2022-11-08T01:04:39.593Z,10.1
2022-11-08T01:12:11.863Z,9.0
2022-11-08T01:19:44.145Z,12.3
2022-11-08T01:27:16.417Z,8.3
2022-11-08T01:34:48.696Z,9.3
2022-11-08T01:42:20.934Z,7.1
2022-11-08T01:49:53.206Z,8.5
2022-11-08T01:57:25.437Z,7.9
2022-11-08T02:04:57.680Z,10.1
2022-11-08T02:12:29.916Z,8.2
2022-11-08T02:20:02.155Z,8.6
2022-11-08T02:27:34.385Z,7.8
2022-11-08T02:35:06.632Z,7.9
2022-11-08T02:42:38.911Z,8.1
2022-11-08T02:50:11.157Z,7.1
2022-11-08T02:57:43.411Z,8.2
2022-11-08T03:05:15.661Z,7.1
2022-11-08T03:12:47.907Z,9.0
2022-11-08T03:20:20.155Z,7.8
2022-11-08T03:27:52.408Z,7.1
2022-11-08T03:35:24.638Z,8.4
2022-11-08T03:42:56.870Z,7.8
2022-11-08T03:50:29.124Z,7.1
2022-11-08T03:58:01.358Z,7.7
2022-11-08T04:06:10.830Z,8.4
2022-11-08T04:06:58.127Z,7.4
2022-11-08T04:07:45.354Z,10.7
2022-11-08T04:08:32.602Z,20.0
2022-11-08T04:09:21.607Z,10.3
2022-11-08T04:10:09.102Z,15.4
2022-11-08T04:17:41.351Z,9.8
2022-11-08T04:25:13.584Z,10.0
2022-11-08T04:32:45.933Z,9.1
2022-11-08T04:40:18.206Z,8.1
2022-11-08T04:47:50.447Z,9.4
2022-11-08T04:55:22.692Z,8.8
2022-11-08T05:02:54.948Z,10.5
2022-11-08T05:10:27.226Z,9.9
2022-11-08T05:17:59.470Z,9.1
2022-11-08T05:25:58.997Z,9.0
2022-11-08T05:26:46.294Z,11.7
2022-11-08T05:27:33.573Z,12.2
2022-11-08T05:28:21.023Z,15.0
2022-11-08T05:29:08.355Z,20.6
2022-11-08T05:29:55.701Z,17.6
2022-11-08T05:30:42.984Z,13.3
2022-11-08T05:31:30.680Z,19.0
2022-11-08T05:32:17.999Z,15.5
2022-11-08T05:33:05.264Z,17.2
2022-11-08T05:33:52.575Z,18.0
2022-11-08T05:34:39.856Z,11.6
2022-11-08T05:35:27.095Z,12.8
2022-11-08T05:36:14.450Z,21.2
2022-11-08T05:37:01.711Z,13.7
2022-11-08T05:37:48.950Z,13.4
2022-11-08T05:38:36.263Z,13.5
2022-11-08T05:39:24.250Z,13.6
2022-11-08T05:40:13.468Z,14.4
2022-11-08T05:41:00.771Z,20.6
2022-11-08T05:41:48.006Z,15.9
2022-11-08T05:42:35.259Z,19.4
2022-11-08T05:43:22.600Z,14.6
2022-11-08T05:44:09.842Z,20.9
2022-11-08T05:44:57.117Z,17.7
2022-11-08T05:45:44.424Z,13.2
2022-11-08T05:46:31.711Z,15.0
2022-11-08T05:47:19.142Z,15.1
2022-11-08T05:48:06.452Z,13.1
2022-11-08T05:48:53.861Z,16.3
2022-11-08T05:49:41.129Z,16.8
2022-11-08T05:50:28.381Z,12.3
2022-11-08T05:51:15.606Z,14.7
2022-11-08T05:52:02.871Z,16.8
2022-11-08T05:52:50.169Z,12.1
2022-11-08T05:53:37.474Z,15.0
2022-11-08T05:54:24.753Z,25.6
2022-11-08T05:55:12.042Z,11.1
2022-11-08T05:55:59.306Z,10.4
2022-11-08T05:56:46.722Z,17.4
2022-11-08T05:57:34.050Z,11.5
2022-11-08T05:58:21.323Z,11.9
2022-11-08T05:59:08.603Z,15.3
2022-11-08T05:59:55.882Z,13.0
2022-11-08T06:00:43.174Z,17.9
2022-11-08T06:01:30.544Z,11.1
2022-11-08T06:02:18.012Z,15.8
2022-11-08T06:03:05.426Z,15.5
2022-11-08T06:03:52.755Z,23.8
2022-11-08T06:04:40.073Z,28.6
2022-11-08T06:05:27.342Z,14.1
2022-11-08T06:06:14.620Z,23.0
2022-11-08T06:07:02.453Z,24.0
2022-11-08T06:07:49.941Z,21.5
2022-11-08T06:08:37.233Z,16.8
2022-11-08T06:09:24.509Z,20.8
2022-11-08T06:10:12.300Z,26.6
2022-11-08T06:11:00.168Z,16.4
2022-11-08T06:11:48.787Z,24.7
2022-11-08T06:12:37.193Z,43.4
2022-11-08T06:13:24.934Z,14.3
2022-11-08T06:14:13.488Z,14.1
2022-11-08T06:15:01.021Z,28.7
2022-11-08T06:15:51.133Z,21.3
2022-11-08T06:16:38.843Z,25.0
2022-11-08T06:17:29.232Z,22.9
2022-11-08T06:18:17.588Z,15.2
2022-11-08T06:19:04.902Z,25.9
2022-11-08T06:19:52.166Z,19.5
2022-11-08T06:20:39.455Z,17.9
2022-11-08T06:21:26.880Z,18.0
2022-11-08T06:22:14.152Z,23.3
2022-11-08T06:23:01.434Z,15.9
2022-11-08T06:23:48.862Z,20.1
2022-11-08T06:24:36.152Z,20.9
2022-11-08T06:25:23.423Z,17.4
2022-11-08T06:26:10.815Z,10.1
2022-11-08T06:26:58.079Z,22.5
2022-11-08T06:27:45.443Z,16.8
2022-11-08T06:28:32.872Z,13.0
2022-11-08T06:29:20.412Z,12.4
2022-11-08T06:30:07.675Z,19.8
2022-11-08T06:30:55.497Z,19.6
2022-11-08T06:31:43.259Z,13.9
2022-11-08T06:32:30.718Z,17.6
2022-11-08T06:33:18.368Z,13.9
2022-11-08T06:34:06.057Z,13.6
2022-11-08T06:34:53.328Z,12.7
2022-11-08T06:35:40.642Z,15.2
2022-11-08T06:36:27.932Z,18.7
2022-11-08T06:37:15.215Z,13.4
2022-11-08T06:38:05.653Z,9.7
2022-11-08T06:38:56.414Z,16.0
2022-11-08T06:39:43.811Z,17.5
2022-11-08T06:40:31.093Z,18.9
2022-11-08T06:41:18.360Z,12.4
2022-11-08T06:42:05.768Z,22.1
2022-11-08T06:42:53.042Z,17.9
2022-11-08T06:43:40.316Z,12.8
2022-11-08T06:44:27.713Z,17.9
2022-11-08T06:45:14.995Z,12.3
2022-11-08T06:46:02.344Z,13.3
2022-11-08T06:46:49.740Z,15.1
2022-11-08T06:47:37.007Z,17.5
2022-11-08T06:48:24.271Z,13.2
2022-11-08T06:49:11.676Z,19.1
2022-11-08T06:49:58.959Z,25.4
2022-11-08T06:50:46.407Z,27.5
2022-11-08T06:51:33.729Z,57.2
2022-11-08T06:52:21.045Z,76.6
2022-11-08T06:53:08.372Z,52.9
2022-11-08T06:53:56.058Z,31.5
2022-11-08T06:54:43.512Z,24.0
2022-11-08T06:55:30.801Z,24.6
2022-11-08T06:56:18.096Z,24.8
2022-11-08T06:57:05.419Z,40.5
2022-11-08T06:57:52.698Z,32.4
2022-11-08T06:58:40.008Z,34.3
2022-11-08T06:59:27.283Z,28.1
2022-11-08T07:00:14.559Z,31.9
2022-11-08T07:01:01.928Z,47.8
2022-11-08T07:01:49.373Z,28.9
2022-11-08T07:02:36.860Z,20.8
2022-11-08T07:03:24.332Z,21.5
2022-11-08T07:04:11.639Z,20.2
2022-11-08T07:04:58.932Z,27.4
2022-11-08T07:05:46.255Z,24.1
2022-11-08T07:06:33.563Z,22.1
2022-11-08T07:07:20.857Z,16.7
2022-11-08T07:08:08.170Z,20.7
2022-11-08T07:08:55.867Z,21.5
2022-11-08T07:09:43.195Z,15.2
2022-11-08T07:10:30.544Z,18.5
2022-11-08T07:11:17.909Z,29.5
2022-11-08T07:12:05.202Z,17.6
2022-11-08T07:12:52.531Z,29.4
2022-11-08T07:13:39.821Z,20.8
2022-11-08T07:14:27.123Z,19.2
2022-11-08T07:15:14.427Z,15.8
2022-11-08T07:16:01.712Z,14.8
2022-11-08T07:16:49.010Z,14.5
2022-11-08T07:17:38.777Z,12.2
2022-11-08T07:18:26.288Z,18.1
2022-11-08T07:19:13.664Z,21.9
2022-11-08T07:20:00.956Z,11.8
2022-11-08T07:20:48.238Z,14.8
2022-11-08T07:21:35.620Z,21.8
2022-11-08T07:22:22.918Z,12.2
2022-11-08T07:23:10.242Z,14.2
2022-11-08T07:23:57.632Z,14.4
2022-11-08T07:24:44.925Z,13.3
2022-11-08T07:25:32.209Z,15.0
2022-11-08T07:26:19.605Z,16.5
2022-11-08T07:27:06.935Z,13.3
2022-11-08T07:27:54.616Z,12.4
2022-11-08T07:28:42.023Z,12.3
2022-11-08T07:29:29.318Z,12.7
2022-11-08T07:30:16.619Z,12.9
2022-11-08T07:31:04.003Z,24.5
2022-11-08T07:31:51.308Z,15.2
2022-11-08T07:32:38.624Z,20.2
2022-11-08T07:33:26.057Z,8.8
2022-11-08T07:34:13.372Z,13.9
2022-11-08T07:35:00.658Z,12.1
2022-11-08T07:35:48.067Z,14.5
2022-11-08T07:36:35.378Z,21.0
2022-11-08T07:37:22.670Z,32.4
2022-11-08T07:38:10.099Z,27.5
2022-11-08T07:38:59.291Z,18.4
2022-11-08T07:39:48.518Z,26.9
2022-11-08T07:40:35.921Z,20.2
2022-11-08T07:41:23.214Z,16.6
2022-11-08T07:42:10.507Z,13.8
2022-11-08T07:43:11.126Z,19.9
2022-11-08T07:43:55.232Z,18.0
2022-11-08T07:44:42.594Z,25.7
2022-11-08T07:45:29.945Z,20.1
2022-11-08T07:46:17.276Z,42.8
2022-11-08T07:47:04.623Z,48.3
2022-11-08T07:47:51.900Z,35.0
2022-11-08T07:48:39.188Z,35.0
2022-11-08T07:49:26.616Z,36.9
2022-11-08T07:50:17.663Z,46.1
2022-11-08T07:51:05.240Z,43.6
2022-11-08T07:51:52.682Z,61.5
2022-11-08T07:52:39.970Z,31.8
2022-11-08T07:53:27.248Z,31.5
2022-11-08T07:54:14.674Z,39.6
2022-11-08T07:55:02.016Z,40.5
2022-11-08T07:55:49.352Z,32.6
2022-11-08T07:56:36.753Z,29.0
2022-11-08T07:57:24.036Z,38.8
2022-11-08T07:58:11.384Z,32.5
2022-11-08T07:58:58.764Z,25.7
2022-11-08T07:59:46.086Z,37.8
2022-11-08T08:00:33.376Z,25.4
2022-11-08T08:01:20.790Z,26.1
2022-11-08T08:02:08.141Z,25.3
2022-11-08T08:02:55.516Z,28.6
2022-11-08T08:03:42.926Z,24.2
2022-11-08T08:04:30.208Z,26.7
2022-11-08T08:05:17.665Z,23.3
2022-11-08T08:06:04.955Z,20.6
2022-11-08T08:06:52.236Z,25.6
2022-11-08T08:07:39.546Z,27.9
2022-11-08T08:08:26.955Z,24.5
2022-11-08T08:09:14.240Z,16.8
2022-11-08T08:10:01.543Z,22.6
2022-11-08T08:10:48.952Z,25.3
2022-11-08T08:11:36.282Z,14.4
2022-11-08T08:12:24.589Z,16.7
2022-11-08T08:13:11.885Z,16.6
2022-11-08T08:13:59.164Z,18.8
2022-11-08T08:14:46.521Z,13.8
2022-11-08T08:15:33.901Z,16.5
2022-11-08T08:16:21.260Z,13.1
2022-11-08T08:17:08.553Z,23.7
2022-11-08T08:17:55.825Z,18.7
2022-11-08T08:18:43.237Z,19.0
2022-11-08T08:19:30.522Z,16.4
2022-11-08T08:20:17.821Z,15.5
2022-11-08T08:21:05.274Z,15.7
2022-11-08T08:21:52.615Z,16.9
2022-11-08T08:22:39.914Z,23.5
2022-11-08T08:23:27.300Z,16.9
2022-11-08T08:24:14.588Z,20.0
2022-11-08T08:25:03.238Z,30.3
2022-11-08T08:25:50.770Z,24.5
2022-11-08T08:26:38.105Z,20.9
2022-11-08T08:27:25.407Z,13.3
2022-11-08T08:28:12.694Z,19.9
2022-11-08T08:29:00.114Z,15.9
2022-11-08T08:29:47.410Z,19.1
2022-11-08T08:30:34.705Z,18.7
2022-11-08T08:31:22.143Z,24.1
2022-11-08T08:32:09.460Z,12.9
2022-11-08T08:33:21.851Z,17.1
2022-11-08T08:33:54.035Z,46.9
2022-11-08T08:34:41.457Z,50.9
2022-11-08T08:35:28.754Z,49.9
2022-11-08T08:36:16.050Z,43.6
2022-11-08T08:37:03.456Z,29.2
2022-11-08T08:37:50.716Z,38.0
2022-11-08T08:38:44.128Z,32.6
2022-11-08T08:39:31.950Z,31.0
2022-11-08T08:40:19.340Z,28.8
2022-11-08T08:41:06.646Z,25.5
2022-11-08T08:41:53.934Z,20.9
2022-11-08T08:42:41.377Z,22.7
2022-11-08T08:43:28.661Z,14.9
2022-11-08T08:44:15.949Z,16.4
2022-11-08T08:45:03.388Z,19.6
2022-11-08T08:45:50.698Z,16.8
2022-11-08T08:46:38.026Z,15.0
2022-11-08T08:47:25.417Z,16.3
2022-11-08T08:48:12.722Z,18.8
2022-11-08T08:49:00.026Z,12.2
2022-11-08T08:49:47.437Z,20.7
2022-11-08T08:50:34.809Z,18.7
2022-11-08T08:51:22.130Z,13.7
2022-11-08T08:52:09.537Z,19.6
2022-11-08T08:52:56.843Z,21.1
2022-11-08T08:53:44.141Z,12.7
2022-11-08T08:54:31.550Z,10.5
2022-11-08T08:55:18.895Z,19.3
2022-11-08T08:56:06.196Z,19.3
2022-11-08T08:56:53.638Z,17.3
2022-11-08T08:57:40.947Z,13.8
2022-11-08T08:58:28.227Z,11.8
2022-11-08T09:01:40.382Z,19.7
2022-11-08T09:02:07.603Z,17.6
2022-11-08T09:02:55.029Z,23.6
2022-11-08T09:03:42.341Z,12.2
2022-11-08T09:04:29.668Z,14.5
2022-11-08T09:05:17.046Z,19.4
2022-11-08T09:06:04.490Z,11.4
2022-11-08T09:06:51.870Z,16.5
2022-11-08T09:07:39.190Z,14.2
2022-11-08T09:08:26.477Z,12.4
2022-11-08T09:09:13.764Z,14.5
2022-11-08T09:10:01.254Z,15.3
2022-11-08T09:10:48.551Z,19.5
2022-11-08T09:11:36.405Z,20.2
2022-11-08T09:12:23.711Z,20.2
2022-11-08T09:13:11.280Z,21.5
2022-11-08T09:13:58.563Z,11.9
2022-11-08T09:14:45.919Z,16.3
2022-11-08T09:15:33.312Z,24.7
2022-11-08T09:16:20.647Z,15.4
2022-11-08T09:17:07.938Z,12.5
2022-11-08T09:17:55.327Z,11.0
2022-11-08T09:18:42.645Z,12.8
2022-11-08T09:19:30.017Z,10.7
2022-11-08T09:20:17.456Z,12.5
2022-11-08T09:21:04.753Z,10.6
2022-11-08T09:21:52.140Z,10.6
2022-11-08T09:22:39.447Z,20.9
2022-11-08T09:23:26.790Z,9.9
2022-11-08T09:24:14.079Z,11.9
2022-11-08T09:25:01.521Z,11.4
2022-11-08T09:25:48.797Z,12.1
2022-11-08T09:26:36.103Z,10.3
2022-11-08T09:27:23.487Z,18.1
2022-11-08T09:28:10.791Z,10.9
2022-11-08T09:28:58.104Z,9.8
2022-11-08T09:29:45.473Z,13.2
2022-11-08T09:30:32.781Z,10.0
2022-11-08T09:31:20.088Z,12.7
2022-11-08T09:32:07.481Z,12.1
2022-11-08T09:33:00.926Z,15.1
2022-11-08T09:33:49.230Z,10.5
2022-11-08T09:34:36.579Z,12.9
2022-11-08T09:35:23.873Z,12.2
2022-11-08T09:36:11.171Z,16.4
2022-11-08T09:36:58.630Z,13.8
2022-11-08T09:37:49.648Z,13.8
2022-11-08T09:38:37.403Z,13.3
2022-11-08T09:39:25.111Z,13.2
2022-11-08T09:40:12.514Z,9.9
2022-11-08T09:40:59.852Z,17.1
2022-11-08T09:41:49.047Z,14.0
2022-11-08T09:42:38.747Z,12.0
2022-11-08T09:43:26.146Z,14.1
2022-11-08T09:44:13.447Z,12.8
2022-11-08T09:45:00.774Z,17.1
2022-11-08T09:45:48.161Z,14.1
2022-11-08T09:46:35.468Z,11.7
2022-11-08T09:47:22.797Z,16.9
2022-11-08T09:48:10.191Z,13.2
2022-11-08T09:48:57.511Z,14.9
2022-11-08T09:49:44.863Z,56.4
2022-11-08T09:50:32.222Z,39.0
2022-11-08T09:51:19.515Z,45.9
2022-11-08T09:52:06.801Z,25.3
2022-11-08T09:52:54.225Z,37.7
2022-11-08T09:53:41.664Z,53.1
2022-11-08T09:54:28.953Z,42.6
2022-11-08T09:55:16.404Z,46.0
2022-11-08T09:56:03.683Z,66.1
2022-11-08T09:56:50.964Z,26.3
2022-11-08T09:57:38.409Z,33.9
2022-11-08T09:58:25.725Z,15.8
2022-11-08T09:59:13.066Z,10.6
2022-11-08T10:00:00.538Z,22.0
2022-11-08T10:00:47.865Z,21.7
2022-11-08T10:01:35.166Z,12.1
2022-11-08T10:02:22.647Z,34.6
2022-11-08T10:03:10.043Z,15.1
2022-11-08T10:03:57.346Z,15.0
2022-11-08T10:04:44.756Z,18.4
2022-11-08T10:05:32.051Z,12.3
2022-11-08T10:06:19.344Z,12.1
2022-11-08T10:07:06.796Z,12.7
2022-11-08T10:07:54.135Z,15.6
2022-11-08T10:08:41.447Z,15.5
2022-11-08T10:09:28.850Z,14.7
2022-11-08T10:10:16.178Z,24.2
2022-11-08T10:11:03.460Z,13.7
2022-11-08T10:11:50.909Z,15.1
2022-11-08T10:12:38.181Z,18.2
2022-11-08T10:13:25.469Z,14.7
2022-11-08T10:14:12.915Z,20.0
2022-11-08T10:15:00.214Z,11.3
2022-11-08T10:15:47.521Z,18.9
2022-11-08T10:16:35.039Z,27.4
2022-11-08T10:17:22.337Z,12.9
2022-11-08T10:18:09.662Z,13.1
2022-11-08T10:18:57.083Z,16.2
2022-11-08T10:19:44.433Z,13.3
2022-11-08T10:20:32.142Z,22.2
2022-11-08T10:21:19.419Z,13.1
2022-11-08T10:22:06.724Z,11.7
2022-11-08T10:22:54.022Z,21.2
2022-11-08T10:23:41.535Z,16.7
2022-11-08T10:24:28.856Z,17.8
2022-11-08T10:25:16.160Z,15.2
2022-11-08T10:26:03.581Z,12.4
2022-11-08T10:26:50.883Z,16.0
2022-11-08T10:27:38.162Z,13.9
2022-11-08T10:28:25.587Z,11.5
2022-11-08T10:29:12.892Z,15.0
2022-11-08T10:30:00.186Z,19.2
2022-11-08T10:30:47.583Z,21.2
2022-11-08T10:31:34.888Z,15.0
2022-11-08T10:32:22.265Z,14.1
2022-11-08T10:33:09.571Z,19.3
2022-11-08T10:33:56.927Z,13.6
2022-11-08T10:34:44.223Z,14.5
2022-11-08T10:35:31.615Z,12.9
2022-11-08T10:36:18.933Z,13.9
2022-11-08T10:37:06.223Z,27.9
2022-11-08T10:37:53.615Z,11.4
2022-11-08T10:38:40.904Z,16.2
2022-11-08T10:39:28.192Z,18.0
2022-11-08T10:40:15.601Z,11.9
2022-11-08T10:41:02.903Z,13.6
2022-11-08T10:41:50.148Z,13.7
2022-11-08T10:42:37.585Z,13.3
2022-11-08T10:43:24.874Z,13.8
2022-11-08T10:44:12.152Z,17.0
2022-11-08T10:44:59.579Z,16.6
2022-11-08T10:45:46.862Z,23.3
2022-11-08T10:46:34.116Z,14.0
2022-11-08T10:47:21.547Z,28.3
2022-11-08T10:48:08.823Z,17.7
2022-11-08T10:48:56.102Z,18.7
2022-11-08T10:49:43.728Z,21.8
2022-11-08T10:50:31.068Z,25.5
2022-11-08T10:51:18.364Z,23.1
2022-11-08T10:52:05.806Z,24.9
2022-11-08T10:52:53.090Z,14.6
2022-11-08T10:53:40.420Z,22.3
2022-11-08T10:54:27.809Z,15.1
2022-11-08T10:55:15.136Z,18.0
2022-11-08T10:56:02.416Z,21.7
2022-11-08T10:56:49.843Z,14.9
2022-11-08T10:57:37.142Z,11.9
2022-11-08T10:58:24.470Z,29.9
2022-11-08T10:59:11.818Z,17.5
2022-11-08T10:59:59.103Z,16.7
2022-11-08T11:00:46.424Z,16.1
2022-11-08T11:01:33.819Z,13.9
2022-11-08T11:02:21.203Z,13.5
2022-11-08T11:03:08.528Z,15.2
2022-11-08T11:03:55.908Z,15.4
2022-11-08T11:04:43.181Z,32.3
2022-11-08T11:05:30.469Z,18.2
2022-11-08T11:06:17.891Z,18.4
2022-11-08T11:07:05.197Z,18.6
2022-11-08T11:07:54.992Z,15.1
2022-11-08T11:08:44.880Z,14.2
2022-11-08T11:09:32.274Z,13.9
2022-11-08T11:10:19.563Z,15.7
2022-11-08T11:11:06.868Z,13.3
2022-11-08T11:11:54.254Z,28.5
2022-11-08T11:12:41.538Z,24.6
2022-11-08T11:13:28.827Z,14.5
2022-11-08T11:14:19.529Z,16.2
2022-11-08T11:15:09.653Z,24.0
2022-11-08T11:15:57.072Z,41.7
2022-11-08T11:16:44.371Z,27.8
2022-11-08T11:17:34.146Z,38.4
2022-11-08T11:18:24.530Z,39.9
2022-11-08T11:19:11.921Z,30.1
2022-11-08T11:19:59.248Z,34.8
2022-11-08T11:20:46.530Z,31.9
2022-11-08T11:21:33.936Z,34.8
2022-11-08T11:22:21.232Z,26.4
2022-11-08T11:23:08.508Z,33.6
2022-11-08T11:23:55.915Z,24.8
2022-11-08T11:24:43.249Z,24.9
2022-11-08T11:25:30.571Z,31.7
2022-11-08T11:26:17.932Z,18.1
2022-11-08T11:33:50.239Z,24.6
2022-11-08T11:41:22.584Z,23.2
2022-11-08T11:48:54.915Z,21.6
2022-11-08T11:56:04.465Z,20.4
2022-11-08T11:56:51.841Z,19.2
2022-11-08T11:57:39.106Z,18.4
2022-11-08T11:58:26.460Z,15.3
2022-11-08T11:59:13.812Z,16.8
2022-11-08T12:00:01.178Z,14.3
2022-11-08T12:00:48.480Z,12.7
2022-11-08T12:01:35.813Z,14.5
2022-11-08T12:02:23.191Z,13.8
2022-11-08T12:03:10.520Z,15.0
2022-11-08T12:03:57.842Z,12.6
2022-11-08T12:04:45.132Z,16.3
2022-11-08T12:05:32.560Z,12.3
2022-11-08T12:06:19.840Z,12.9
2022-11-08T12:07:07.148Z,11.6
2022-11-08T12:07:54.473Z,11.6
2022-11-08T12:08:41.808Z,11.2
2022-11-08T12:09:29.125Z,15.5
2022-11-08T12:10:16.410Z,12.9
2022-11-08T12:11:03.737Z,16.1
2022-11-08T12:11:51.023Z,12.3
2022-11-08T12:12:38.304Z,11.8
2022-11-08T12:13:25.588Z,14.2
2022-11-08T12:14:12.907Z,14.0
2022-11-08T12:15:00.239Z,11.0
2022-11-08T12:15:47.524Z,11.1
2022-11-08T12:16:34.822Z,17.2
2022-11-08T12:17:22.104Z,15.2
2022-11-08T12:18:09.389Z,17.6
2022-11-08T12:18:56.711Z,10.9
2022-11-08T12:19:44.169Z,11.3
2022-11-08T12:20:31.489Z,11.3
2022-11-08T12:21:18.797Z,11.0
2022-11-08T12:22:06.079Z,12.3
2022-11-08T12:22:53.417Z,16.4
2022-11-08T12:23:40.695Z,13.8
2022-11-08T12:24:27.999Z,10.2
2022-11-08T12:25:15.284Z,15.1
2022-11-08T12:26:02.587Z,11.9
2022-11-08T12:26:49.913Z,11.8
2022-11-08T12:27:37.220Z,12.7
2022-11-08T12:28:24.506Z,21.3
2022-11-08T12:29:11.782Z,11.2
2022-11-08T12:29:59.112Z,12.9
2022-11-08T12:30:46.386Z,12.8
2022-11-08T12:31:33.677Z,18.2
2022-11-08T12:32:20.992Z,10.0
2022-11-08T12:33:08.311Z,12.3
2022-11-08T12:33:58.251Z,14.1
2022-11-08T12:34:45.749Z,12.0
2022-11-08T12:35:33.159Z,13.4
2022-11-08T12:36:20.555Z,16.1
2022-11-08T12:37:07.849Z,12.3
2022-11-08T12:37:55.278Z,14.3
2022-11-08T12:38:43.047Z,10.3
2022-11-08T12:39:30.285Z,10.8
2022-11-08T12:40:17.766Z,12.6
2022-11-08T12:41:05.055Z,10.9
2022-11-08T12:41:52.333Z,11.1
2022-11-08T12:42:39.763Z,10.3
2022-11-08T12:43:27.024Z,13.7
2022-11-08T12:44:14.316Z,11.9
2022-11-08T12:45:01.949Z,13.5
2022-11-08T12:45:49.254Z,14.5
2022-11-08T12:46:36.531Z,12.5
2022-11-08T12:47:23.944Z,16.0
2022-11-08T12:48:11.214Z,19.0
2022-11-08T12:48:58.491Z,12.8
2022-11-08T12:49:45.911Z,14.3
2022-11-08T12:50:33.201Z,15.7
2022-11-08T12:51:20.478Z,11.5
2022-11-08T12:52:07.874Z,20.2
2022-11-08T12:52:55.171Z,14.9
2022-11-08T12:53:42.488Z,16.8
2022-11-08T12:54:29.863Z,18.5
2022-11-08T12:55:17.148Z,16.3
2022-11-08T12:56:04.460Z,14.4
2022-11-08T12:56:51.830Z,18.5
2022-11-08T12:57:39.325Z,18.5
2022-11-08T12:58:30.367Z,20.6
2022-11-08T12:59:20.352Z,18.1
2022-11-08T13:00:07.811Z,13.1
2022-11-08T13:00:55.123Z,20.3
2022-11-08T13:01:42.431Z,13.3
2022-11-08T13:02:29.844Z,17.0
2022-11-08T13:03:17.113Z,14.0
2022-11-08T13:04:06.240Z,14.6
2022-11-08T13:04:53.782Z,16.1
2022-11-08T13:05:41.078Z,13.1
2022-11-08T13:06:28.392Z,13.7
2022-11-08T13:07:15.798Z,18.9
2022-11-08T13:08:03.124Z,13.7
2022-11-08T13:08:50.417Z,15.9
2022-11-08T13:09:37.712Z,13.5
2022-11-08T13:10:25.108Z,14.4
2022-11-08T13:11:12.394Z,17.3
2022-11-08T13:11:59.697Z,10.9
2022-11-08T13:12:47.085Z,12.5
2022-11-08T13:13:34.371Z,19.9
2022-11-08T13:14:21.659Z,18.4
2022-11-08T13:15:09.063Z,16.0
2022-11-08T13:15:56.371Z,21.1
2022-11-08T13:16:43.668Z,12.8
2022-11-08T13:17:31.050Z,13.6
2022-11-08T13:18:18.554Z,10.3
2022-11-08T13:19:06.050Z,14.6
2022-11-08T13:19:53.450Z,12.9
2022-11-08T13:20:40.730Z,13.0
2022-11-08T13:21:28.033Z,12.0
2022-11-08T13:22:15.460Z,13.6
2022-11-08T13:23:02.734Z,16.1
2022-11-08T13:23:50.010Z,12.0
2022-11-08T13:24:44.385Z,20.7
2022-11-08T13:25:32.526Z,20.1
2022-11-08T13:26:19.969Z,13.6
2022-11-08T13:27:07.256Z,12.4
2022-11-08T13:27:54.537Z,12.2
2022-11-08T13:28:41.984Z,13.5
2022-11-08T13:29:29.280Z,12.4
2022-11-08T13:30:16.557Z,16.5
2022-11-08T13:31:03.970Z,11.3
2022-11-08T13:31:51.275Z,16.7
2022-11-08T13:32:38.553Z,15.6
2022-11-08T13:33:26.022Z,12.1
2022-11-08T13:34:13.323Z,18.9
2022-11-08T13:35:00.599Z,11.6
2022-11-08T13:35:48.060Z,11.7
2022-11-08T13:36:35.343Z,13.5
2022-11-08T13:37:22.648Z,19.9
2022-11-08T13:38:10.015Z,14.1
2022-11-08T13:38:57.881Z,17.1
2022-11-08T13:39:45.160Z,18.1
2022-11-08T13:40:32.564Z,17.4
2022-11-08T13:41:19.849Z,12.9
2022-11-08T13:42:07.144Z,15.2
2022-11-08T13:42:54.526Z,15.0
2022-11-08T13:43:41.808Z,13.9
2022-11-08T13:44:29.096Z,22.3
2022-11-08T13:45:16.484Z,13.3
2022-11-08T13:46:03.811Z,22.9
2022-11-08T13:46:51.105Z,12.5
2022-11-08T13:47:38.519Z,15.8
2022-11-08T13:48:26.188Z,18.8
2022-11-08T13:49:13.740Z,12.8
2022-11-08T13:50:01.336Z,16.2
2022-11-08T13:50:48.638Z,14.6
2022-11-08T13:51:35.928Z,19.5
2022-11-08T13:52:23.341Z,27.1
2022-11-08T13:53:10.643Z,16.3
2022-11-08T13:53:58.031Z,14.0
2022-11-08T13:54:45.451Z,16.9
2022-11-08T13:55:32.732Z,26.5
2022-11-08T13:56:20.018Z,14.6
2022-11-08T13:57:07.439Z,17.0
2022-11-08T13:57:54.729Z,18.0
2022-11-08T13:58:42.023Z,16.4
2022-11-08T13:59:29.432Z,20.0
2022-11-08T14:00:16.745Z,23.9
2022-11-08T14:01:04.076Z,16.4
2022-11-08T14:01:51.466Z,15.0
2022-11-08T14:02:38.816Z,15.9
2022-11-08T14:03:26.259Z,18.9
2022-11-08T14:04:13.543Z,17.8
2022-11-08T14:05:00.820Z,19.5
2022-11-08T14:05:48.101Z,15.9
2022-11-08T14:06:35.575Z,15.4
2022-11-08T14:07:25.432Z,14.7
2022-11-08T14:08:13.011Z,17.0
2022-11-08T14:09:00.443Z,17.8
2022-11-08T14:09:47.755Z,14.5
2022-11-08T14:10:35.043Z,13.9
2022-11-08T14:11:22.453Z,11.5
2022-11-08T14:12:09.730Z,15.8
2022-11-08T14:12:57.016Z,27.9
2022-11-08T14:13:44.416Z,15.9
2022-11-08T14:14:31.704Z,16.4
2022-11-08T14:15:19.052Z,10.7
2022-11-08T14:16:06.450Z,16.2
2022-11-08T14:16:53.733Z,14.5
2022-11-08T14:17:41.045Z,16.6
2022-11-08T14:18:28.406Z,12.5
2022-11-08T14:19:15.704Z,25.1
2022-11-08T14:20:02.990Z,14.7
2022-11-08T14:20:50.375Z,10.7
2022-11-08T14:21:37.651Z,17.9
2022-11-08T14:22:24.923Z,12.6
2022-11-08T14:23:12.351Z,15.1
2022-11-08T14:23:59.644Z,12.1
2022-11-08T14:24:46.938Z,12.5
2022-11-08T14:25:34.316Z,18.0
2022-11-08T14:26:21.623Z,28.9
2022-11-08T14:27:09.027Z,15.5
2022-11-08T14:27:56.355Z,10.2
2022-11-08T14:28:43.695Z,15.2
2022-11-08T14:29:31.018Z,12.1
2022-11-08T14:30:18.464Z,15.7
2022-11-08T14:31:05.753Z,11.2
2022-11-08T14:31:53.038Z,16.8
2022-11-08T14:32:40.628Z,11.3
2022-11-08T14:33:27.925Z,13.1
2022-11-08T14:34:15.207Z,12.6
2022-11-08T14:35:02.616Z,13.8
2022-11-08T14:35:49.895Z,13.9
2022-11-08T14:36:37.168Z,13.8
2022-11-08T14:37:24.614Z,11.8
2022-11-08T14:38:11.910Z,12.5
2022-11-08T14:38:59.189Z,20.2
2022-11-08T14:39:46.655Z,26.2
2022-11-08T14:40:33.942Z,66.9
2022-11-08T14:41:21.246Z,44.8
2022-11-08T14:42:08.662Z,20.7
2022-11-08T14:42:55.965Z,86.1
2022-11-08T14:43:43.276Z,31.3
2022-11-08T14:44:30.683Z,18.8
2022-11-08T14:45:20.693Z,34.5
2022-11-08T14:46:12.027Z,23.2
2022-11-08T14:46:59.454Z,16.3
2022-11-08T14:47:46.737Z,17.6
2022-11-08T14:48:34.011Z,18.2
2022-11-08T14:49:21.448Z,31.8
2022-11-08T14:50:08.737Z,18.2
2022-11-08T14:50:56.218Z,21.5
2022-11-08T14:51:43.624Z,21.2
2022-11-08T14:52:31.009Z,14.8
2022-11-08T14:53:18.556Z,17.4
2022-11-08T14:54:06.020Z,15.6
2022-11-08T14:54:53.313Z,15.1
2022-11-08T14:55:40.625Z,14.7
2022-11-08T14:56:28.036Z,17.0
2022-11-08T14:57:15.372Z,17.5
2022-11-08T14:58:02.661Z,14.4
2022-11-08T14:58:50.091Z,15.4
2022-11-08T14:59:37.366Z,13.6
2022-11-08T15:00:24.813Z,13.9
2022-11-08T15:01:12.175Z,17.9
2022-11-08T15:01:59.508Z,15.5
2022-11-08T15:02:46.815Z,62.6
2022-11-08T15:03:34.241Z,20.1
2022-11-08T15:04:21.532Z,17.2
2022-11-08T15:05:08.808Z,22.0
2022-11-08T15:05:56.234Z,30.4
2022-11-08T15:06:43.608Z,23.4
2022-11-08T15:07:30.935Z,31.0
2022-11-08T15:08:18.315Z,18.7
2022-11-08T15:09:05.594Z,25.0
2022-11-08T15:09:52.907Z,19.6
2022-11-08T15:10:40.280Z,22.4
2022-11-08T15:11:28.472Z,21.7
2022-11-08T15:12:15.991Z,19.0
2022-11-08T15:13:03.383Z,16.5
2022-11-08T15:13:50.678Z,26.1
2022-11-08T15:14:37.971Z,18.0
2022-11-08T15:15:25.405Z,22.9
2022-11-08T15:16:12.721Z,20.6
2022-11-08T15:17:03.070Z,19.8
2022-11-08T15:17:50.868Z,20.6
2022-11-08T15:18:38.335Z,18.9
2022-11-08T15:19:25.625Z,18.7
2022-11-08T15:20:12.926Z,26.1
2022-11-08T15:21:00.337Z,17.5
2022-11-08T15:21:47.648Z,20.5
2022-11-08T15:22:34.982Z,18.0
2022-11-08T15:23:22.359Z,16.7
2022-11-08T15:24:09.663Z,17.0
2022-11-08T15:24:56.949Z,36.7
2022-11-08T15:25:44.394Z,25.4
2022-11-08T15:26:31.676Z,24.7
2022-11-08T15:27:18.985Z,35.5
2022-11-08T15:28:06.448Z,20.8
2022-11-08T15:28:53.930Z,26.7
2022-11-08T15:29:41.312Z,21.9
2022-11-08T15:30:28.745Z,17.9
2022-11-08T15:31:16.036Z,20.9
2022-11-08T15:32:03.415Z,22.6
2022-11-08T15:32:50.744Z,21.0
2022-11-08T15:33:38.031Z,24.3
2022-11-08T15:34:25.364Z,23.3
2022-11-08T15:35:12.816Z,23.2
2022-11-08T15:36:00.115Z,21.3
2022-11-08T15:36:47.422Z,15.8
2022-11-08T15:37:34.825Z,20.9
2022-11-08T15:38:22.111Z,27.7
2022-11-08T15:39:09.785Z,25.3
2022-11-08T15:39:57.395Z,17.1
2022-11-08T15:40:45.478Z,19.5
2022-11-08T15:41:33.504Z,21.3
2022-11-08T15:42:20.843Z,14.5
2022-11-08T15:43:08.166Z,16.5
2022-11-08T15:43:55.457Z,23.4
2022-11-08T15:44:42.782Z,16.7
2022-11-08T15:45:30.103Z,17.4
2022-11-08T15:46:17.405Z,24.4
2022-11-08T15:47:04.774Z,20.9
2022-11-08T15:47:52.051Z,21.8
2022-11-08T15:48:39.918Z,23.5
2022-11-08T15:49:27.216Z,17.1
2022-11-08T15:50:14.491Z,24.5